Time;durP1;ratioP1;P1;durP2;ratioP2;P2;SDS_P1;SDS_P2;PMS_P1;PMS_P2;Temp;Humidity;BMP_temperature;BMP_pressure;BME280_temperature;BME280_humidity;BME280_pressure;Samples;Min_cycle;Max_cycle;Signal;HPM_P1;HPM_P2
2022/06/30 00:02:17;;;;;;;;;;;;;;;19.39;67.30;100517.91;1730021;81;20684;-77
2022/06/30 00:04:42;;;;;;;;;;;;;;;19.28;67.71;100505.12;1729390;81;20160;-77
2022/06/30 00:07:08;;;;;;;;;;;;;;;19.19;68.09;100521.34;1748057;81;20285;-76
2022/06/30 00:09:34;;;;;;;;;;;;;;;19.13;68.49;100522.24;1695318;84;20220;-76
2022/06/30 00:12:00;;;;;;;;;;;;;;;19.09;68.82;100507.52;1694714;83;20212;-76
2022/06/30 00:14:26;;;;;;;;;;;;;;;19.07;69.14;100498.78;1695270;83;21114;-76
2022/06/30 00:16:52;;;;;;;;;;;;;;;19.01;69.43;100492.92;1706592;82;20299;-77
2022/06/30 00:19:17;;;;;;;;;;;;;;;18.97;69.77;100480.89;1703650;81;20211;-77
2022/06/30 00:21:43;;;;;;;;;;;;;;;18.93;70.04;100476.98;1704935;82;20160;-76
2022/06/30 00:24:09;;;;;;;;;;;;;;;18.88;70.27;100468.73;1705016;82;20192;-75
2022/06/30 00:26:35;;;;;;;;;;;;;;;18.87;70.55;100472.47;1727369;82;21779;-75
2022/06/30 00:29:01;;;;;;;;;;;;;;;18.81;70.74;100464.73;1710886;82;20259;-75
2022/06/30 00:31:27;;;;;;;;;;;;;;;18.75;71.05;100460.75;1699716;83;20204;-75
2022/06/30 00:33:53;;;;;;;;;;;;;;;18.73;71.32;100462.31;1704472;82;20144;-74
2022/06/30 00:36:18;;;;;;;;;;;;;;;18.71;71.58;100462.23;1701864;82;20192;-74
2022/06/30 00:38:44;;;;;;;;;;;;;;;18.71;71.80;100454.13;1726112;82;21093;-74
2022/06/30 00:41:10;;;;;;;;;;;;;;;18.71;71.98;100444.67;1728036;81;20199;-74
2022/06/30 00:43:44;;;;;;;;;;;;;;;18.66;72.20;100440.44;1721268;83;20216;-74
2022/06/30 00:46:10;;;;;;;;;;;;;;;18.65;72.47;100425.27;1716982;83;20207;-74
2022/06/30 00:48:36;;;;;;;;;;;;;;;18.63;72.68;100413.87;1721221;81;20170;-74
2022/06/30 00:51:05;;;;;;;;;;;;;;;18.61;72.88;100402.48;1722793;81;21821;-74
2022/06/30 00:53:35;;;;;;;;;;;;;;;18.59;73.07;100374.84;1726984;81;20477;-74
2022/06/30 00:56:04;;;;;;;;;;;;;;;18.57;73.24;100356.70;1726517;81;20186;-73
2022/06/30 00:58:29;;;;;;;;;;;;;;;18.55;73.46;100348.80;1739311;81;20184;-74
2022/06/30 01:00:55;;;;;;;;;;;;;;;18.55;73.70;100331.25;1728482;81;20259;-73
2022/06/30 01:03:21;;;;;;;;;;;;;;;18.55;73.90;100316.91;1724642;81;21777;-73
2022/06/30 01:05:47;;;;;;;;;;;;;;;18.52;74.12;100309.26;1718665;81;20210;-74
2022/06/30 01:08:14;;;;;;;;;;;;;;;18.50;74.28;100305.94;1719445;82;20183;-74
2022/06/30 01:13:24;;;;;;;;;;;;;;;18.43;74.60;100293.34;1695280;83;20157;-74
2022/06/30 01:15:50;;;;;;;;;;;;;;;18.42;74.82;100304.34;1678875;83;21115;-74
2022/06/30 01:18:15;;;;;;;;;;;;;;;18.40;74.98;100312.66;1678192;84;20217;-74
2022/06/30 01:20:41;;;;;;;;;;;;;;;18.39;75.18;100317.78;1680091;84;20198;-74
2022/06/30 01:23:08;;;;;;;;;;;;;;;18.38;75.41;100317.47;1683949;84;20174;-74
2022/06/30 01:25:34;;;;;;;;;;;;;;;18.36;75.64;100327.68;1674734;84;20181;-74
2022/06/30 01:28:00;;;;;;;;;;;;;;;18.33;75.86;100325.40;1682766;84;21164;-74
2022/06/30 01:30:26;;;;;;;;;;;;;;;18.31;76.09;100324.80;1673497;84;20170;-74
2022/06/30 01:32:52;;;;;;;;;;;;;;;18.27;76.30;100318.19;1680892;84;20155;-74
2022/06/30 01:35:18;;;;;;;;;;;;;;;18.27;76.51;100319.55;1682231;84;20658;-74
2022/06/30 01:37:55;;;;;;;;;;;;;;;18.22;76.69;100300.50;1683092;83;20315;-75
2022/06/30 01:40:22;;;;;;;;;;;;;;;18.22;76.93;100301.85;1688203;83;21354;-74
2022/06/30 01:42:48;;;;;;;;;;;;;;;18.20;77.19;100305.80;1689827;83;20136;-74
2022/06/30 01:45:14;;;;;;;;;;;;;;;18.19;77.33;100304.97;1689479;83;20265;-74
2022/06/30 01:47:40;;;;;;;;;;;;;;;18.16;77.48;100297.84;1689877;83;20233;-73
2022/06/30 01:50:08;;;;;;;;;;;;;;;18.15;77.69;100297.04;1685884;84;20313;-74
2022/06/30 01:52:34;;;;;;;;;;;;;;;18.13;77.89;100282.92;1669271;85;21082;-73
2022/06/30 01:55:00;;;;;;;;;;;;;;;18.13;78.04;100299.63;1689246;84;20281;-73
2022/06/30 01:57:26;;;;;;;;;;;;;;;18.12;78.18;100306.91;1689568;85;20173;-73
2022/06/30 01:59:52;;;;;;;;;;;;;;;18.11;78.30;100329.56;1689654;83;20306;-73
2022/06/30 02:02:17;;;;;;;;;;;;;;;18.11;78.41;100329.56;1692255;83;20245;-73
2022/06/30 02:04:53;;;;;;;;;;;;;;;18.10;78.51;100340.05;1681310;83;21121;-73
2022/06/30 02:07:20;;;;;;;;;;;;;;;18.09;78.68;100358.63;1689136;83;20175;-73
2022/06/30 02:09:46;;;;;;;;;;;;;;;18.09;78.81;100350.53;1689599;84;20195;-73
2022/06/30 02:14:57;;;;;;;;;;;;;;;18.10;79.01;100352.20;1689335;83;20191;-75
2022/06/30 02:17:22;;;;;;;;;;;;;;;18.10;79.20;100359.46;1688605;83;21150;-75
2022/06/30 02:19:48;;;;;;;;;;;;;;;18.08;79.36;100351.60;1689358;83;20241;-75
2022/06/30 02:22:14;;;;;;;;;;;;;;;18.08;79.59;100337.27;1689652;85;20229;-75
2022/06/30 02:24:40;;;;;;;;;;;;;;;18.06;79.80;100318.59;1689223;83;20213;-75
2022/06/30 02:27:06;;;;;;;;;;;;;;;18.05;79.98;100292.64;1691330;83;20173;-74
2022/06/30 02:29:32;;;;;;;;;;;;;;;18.04;80.16;100295.05;1685296;83;21138;-75
2022/06/30 02:31:57;;;;;;;;;;;;;;;18.04;80.35;100315.30;1684984;83;20761;-74
2022/06/30 02:34:23;;;;;;;;;;;;;;;18.05;80.54;100312.08;1689749;83;20221;-75
2022/06/30 02:36:50;;;;;;;;;;;;;;;18.04;80.70;100327.44;1688859;83;20163;-75
2022/06/30 02:39:16;;;;;;;;;;;;;;;18.06;80.79;100328.03;1702280;83;20177;-75
2022/06/30 02:41:42;;;;;;;;;;;;;;;18.07;81.00;100341.84;1705594;82;21232;-75
2022/06/30 02:44:08;;;;;;;;;;;;;;;18.10;81.22;100360.29;1700144;82;20282;-75
2022/06/30 02:46:34;;;;;;;;;;;;;;;18.12;81.35;100339.29;1697723;82;20200;-74
2022/06/30 02:49:00;;;;;;;;;;;;;;;18.12;81.52;100339.29;1708443;82;20152;-75
2022/06/30 02:51:25;;;;;;;;;;;;;;;18.14;81.59;100331.81;1709330;82;20180;-75
2022/06/30 02:53:51;;;;;;;;;;;;;;;18.15;81.63;100339.39;1707926;83;21936;-74
2022/06/30 02:56:17;;;;;;;;;;;;;;;18.16;81.65;100343.73;1708020;83;20266;-74
2022/06/30 02:58:43;;;;;;;;;;;;;;;18.19;81.82;100363.56;1708142;83;20267;-74
2022/06/30 03:01:08;;;;;;;;;;;;;;;18.20;81.86;100363.31;1707802;82;20697;-74
2022/06/30 03:03:34;;;;;;;;;;;;;;;18.23;81.86;100351.24;1706417;82;20302;-74
2022/06/30 03:06:00;;;;;;;;;;;;;;;18.24;81.97;100344.29;1713158;82;21110;-74
2022/06/30 03:08:26;;;;;;;;;;;;;;;18.25;82.00;100345.95;1707863;82;20243;-74
2022/06/30 03:10:52;;;;;;;;;;;;;;;18.26;82.06;100335.44;1705521;83;20180;-74
2022/06/30 03:13:18;;;;;;;;;;;;;;;18.27;82.17;100328.16;1707840;82;20207;-74
2022/06/30 03:15:44;;;;;;;;;;;;;;;18.27;82.18;100310.09;1707638;82;20799;-74
2022/06/30 03:18:09;;;;;;;;;;;;;;;18.29;82.22;100282.37;1707798;82;21244;-74
2022/06/30 03:20:35;;;;;;;;;;;;;;;18.28;82.30;100281.23;1707976;84;20204;-74
2022/06/30 03:23:01;;;;;;;;;;;;;;;18.29;82.28;100272.92;1708988;82;20274;-74
2022/06/30 03:25:27;;;;;;;;;;;;;;;18.30;82.41;100284.00;1708924;82;20215;-74
2022/06/30 03:27:53;;;;;;;;;;;;;;;18.29;82.42;100273.44;1707149;82;20176;-74
2022/06/30 03:30:18;;;;;;;;;;;;;;;18.30;82.46;100264.27;1709057;82;21090;-74
2022/06/30 03:32:44;;;;;;;;;;;;;;;18.31;82.42;100273.51;1707571;82;20243;-74
2022/06/30 03:35:10;;;;;;;;;;;;;;;18.30;82.46;100288.05;1706057;82;20224;-74
2022/06/30 03:37:36;;;;;;;;;;;;;;;18.31;82.51;100314.01;1706419;82;20173;-74
2022/06/30 03:40:03;;;;;;;;;;;;;;;18.33;82.55;100326.75;1707962;83;20208;-73
2022/06/30 03:42:28;;;;;;;;;;;;;;;18.35;82.52;100331.42;1707778;82;21211;-74
2022/06/30 03:44:54;;;;;;;;;;;;;;;18.35;82.50;100316.57;1707752;82;20270;-73
2022/06/30 03:47:20;;;;;;;;;;;;;;;18.35;82.55;100288.22;1708331;82;20279;-74
2022/06/30 03:49:46;;;;;;;;;;;;;;;18.35;82.54;100285.52;1707987;83;20148;-74
2022/06/30 03:52:12;;;;;;;;;;;;;;;18.35;82.51;100307.12;1708261;82;20196;-74
2022/06/30 03:54:38;;;;;;;;;;;;;;;18.36;82.61;100327.68;1706131;82;21935;-74
2022/06/30 03:57:04;;;;;;;;;;;;;;;18.36;82.63;100328.20;1708084;83;20268;-74
2022/06/30 03:59:30;;;;;;;;;;;;;;;18.37;82.60;100331.18;1704098;82;20463;-74
2022/06/30 04:01:56;;;;;;;;;;;;;;;18.36;82.61;100319.58;1708068;83;20180;-74
2022/06/30 04:04:22;;;;;;;;;;;;;;;18.38;82.62;100318.81;1706131;82;20240;-74
2022/06/30 04:06:48;;;;;;;;;;;;;;;18.39;82.74;100328.58;1707658;82;21706;-74
2022/06/30 04:09:14;;;;;;;;;;;;;;;18.43;82.72;100337.06;1706875;84;20196;-74
2022/06/30 04:11:39;;;;;;;;;;;;;;;18.44;82.80;100333.30;1707838;83;20799;-74
2022/06/30 04:14:05;;;;;;;;;;;;;;;18.46;82.76;100338.80;1705258;82;20479;-74
2022/06/30 04:16:31;;;;;;;;;;;;;;;18.50;82.79;100341.05;1702429;82;20700;-74
2022/06/30 04:18:57;;;;;;;;;;;;;;;18.51;82.85;100346.80;1708316;82;21208;-74
2022/06/30 04:21:23;;;;;;;;;;;;;;;18.54;82.91;100339.59;1707574;82;20866;-74
2022/06/30 04:23:49;;;;;;;;;;;;;;;18.57;82.95;100333.73;1707399;82;20231;-74
2022/06/30 04:26:14;;;;;;;;;;;;;;;18.63;82.91;100339.59;1707955;82;20172;-74
2022/06/30 04:28:40;;;;;;;;;;;;;;;18.68;82.99;100337.05;1708040;83;20177;-74
2022/06/30 04:33:50;;;;;;;;;;;;;;;18.77;82.93;100330.30;1709367;82;20446;-74
2022/06/30 04:36:16;;;;;;;;;;;;;;;18.83;83.01;100334.78;1707831;83;20283;-74
2022/06/30 04:38:42;;;;;;;;;;;;;;;18.91;82.99;100343.95;1707943;83;20192;-75
2022/06/30 04:41:26;;;;;;;;;;;;;;;19.07;82.97;100348.73;1707441;82;20710;-75
2022/06/30 04:43:56;;;;;;;;;;;;;;;19.39;83.01;100351.56;1701157;82;22325;-75
2022/06/30 04:46:22;;;;;;;;;;;;;;;19.89;82.97;100348.59;1695387;83;20397;-75
2022/06/30 04:48:48;;;;;;;;;;;;;;;20.24;82.85;100350.00;1703773;82;20496;-75
2022/06/30 04:51:14;;;;;;;;;;;;;;;20.85;82.86;100352.27;1710456;82;20173;-76
2022/06/30 04:53:40;;;;;;;;;;;;;;;21.48;82.61;100356.84;1705798;82;20177;-75
2022/06/30 04:56:07;;;;;;;;;;;;;;;21.77;82.34;100351.70;1707035;82;21753;-75
2022/06/30 04:58:33;;;;;;;;;;;;;;;21.69;82.15;100359.70;1706400;82;20144;-75
2022/06/30 05:00:59;;;;;;;;;;;;;;;21.75;81.94;100363.31;1707636;83;20208;-75
2022/06/30 05:03:25;;;;;;;;;;;;;;;21.70;81.68;100356.45;1707560;82;20333;-75
2022/06/30 05:05:53;;;;;;;;;;;;;;;21.46;81.50;100358.45;1708293;82;20192;-75
2022/06/30 05:08:19;;;;;;;;;;;;;;;21.23;81.31;100363.41;1707361;82;21126;-75
2022/06/30 05:10:44;;;;;;;;;;;;;;;21.08;81.16;100360.34;1731020;81;20288;-76
2022/06/30 05:13:10;;;;;;;;;;;;;;;21.07;81.04;100358.72;1693588;83;20232;-75
2022/06/30 05:15:36;;;;;;;;;;;;;;;21.31;80.88;100367.12;1718278;82;20342;-75
2022/06/30 05:18:02;;;;;;;;;;;;;;;21.17;80.69;100367.09;1712173;82;20247;-75
2022/06/30 05:20:28;;;;;;;;;;;;;;;21.24;80.70;100367.78;1699729;82;21725;-75
2022/06/30 05:22:54;;;;;;;;;;;;;;;21.75;80.64;100356.53;1718286;82;20418;-75
2022/06/30 05:28:04;;;;;;;;;;;;;;;22.25;80.03;100360.70;1715438;82;20283;-75
2022/06/30 05:30:30;;;;;;;;;;;;;;;22.57;79.95;100368.55;1718212;83;20148;-76
2022/06/30 05:32:56;;;;;;;;;;;;;;;22.92;79.69;100368.26;1709210;82;22477;-75
2022/06/30 05:35:22;;;;;;;;;;;;;;;23.17;79.40;100369.95;1713549;82;20259;-76
2022/06/30 05:37:48;;;;;;;;;;;;;;;23.42;79.15;100360.48;1715869;82;20203;-76
2022/06/30 05:40:14;;;;;;;;;;;;;;;23.53;78.83;100370.41;1723200;82;20390;-76
2022/06/30 05:42:40;;;;;;;;;;;;;;;23.85;78.63;100369.37;1726001;81;20214;-76
2022/06/30 05:45:06;;;;;;;;;;;;;;;23.98;78.16;100370.05;1726157;82;22568;-76
2022/06/30 05:47:32;;;;;;;;;;;;;;;24.25;77.89;100363.50;1726565;81;20136;-76
2022/06/30 05:49:58;;;;;;;;;;;;;;;24.40;77.46;100370.16;1726122;81;20278;-76
2022/06/30 05:52:24;;;;;;;;;;;;;;;24.49;77.14;100376.22;1726363;81;20683;-76
2022/06/30 05:54:50;;;;;;;;;;;;;;;24.29;76.79;100376.89;1726312;81;20175;-76
2022/06/30 05:57:15;;;;;;;;;;;;;;;24.31;76.56;100372.56;1725053;81;21752;-76
2022/06/30 05:59:41;;;;;;;;;;;;;;;24.29;76.21;100390.52;1720129;81;20254;-76
2022/06/30 06:02:07;;;;;;;;;;;;;;;24.13;75.93;100381.95;1726355;81;20817;-76
2022/06/30 06:04:34;;;;;;;;;;;;;;;23.96;75.83;100381.19;1725466;81;20422;-75
2022/06/30 06:07:00;;;;;;;;;;;;;;;23.89;75.66;100383.30;1726451;81;20164;-75
2022/06/30 06:09:26;;;;;;;;;;;;;;;23.58;75.36;100387.61;1726347;81;21777;-75
2022/06/30 06:11:53;;;;;;;;;;;;;;;23.50;75.43;100379.09;1726510;82;20179;-75
2022/06/30 06:14:19;;;;;;;;;;;;;;;23.46;75.22;100370.61;1726014;81;20172;-75
2022/06/30 06:16:45;;;;;;;;;;;;;;;23.27;75.07;100378.77;1726233;81;20755;-75
2022/06/30 06:19:11;;;;;;;;;;;;;;;23.21;75.00;100386.06;1726171;82;20430;-75
2022/06/30 06:21:37;;;;;;;;;;;;;;;23.16;74.93;100384.62;1725129;81;21802;-75
2022/06/30 06:24:03;;;;;;;;;;;;;;;23.04;74.83;100374.95;1726313;81;20107;-75
2022/06/30 06:26:29;;;;;;;;;;;;;;;22.98;74.77;100382.20;1725922;81;20203;-76
2022/06/30 06:29:07;;;;;;;;;;;;;;;23.11;74.70;100383.75;1725708;81;20410;-75
2022/06/30 06:31:37;;;;;;;;;;;;;;;23.27;74.61;100391.02;1726560;81;20096;-76
2022/06/30 06:34:03;;;;;;;;;;;;;;;23.60;74.47;100398.26;1725113;81;21886;-76
2022/06/30 06:36:29;;;;;;;;;;;;;;;23.71;74.33;100389.95;1725564;81;21044;-76
2022/06/30 06:38:55;;;;;;;;;;;;;;;23.92;74.13;100390.16;1725941;82;20738;-76
2022/06/30 06:41:21;;;;;;;;;;;;;;;24.26;73.95;100386.96;1696829;83;20205;-76
2022/06/30 06:43:48;;;;;;;;;;;;;;;24.61;73.61;100389.67;1697316;83;20185;-76
2022/06/30 06:46:14;;;;;;;;;;;;;;;24.82;73.26;100389.55;1689120;83;21487;-76
2022/06/30 06:48:40;;;;;;;;;;;;;;;25.07;72.98;100384.80;1697044;83;20177;-76
2022/06/30 06:51:06;;;;;;;;;;;;;;;25.32;72.57;100395.84;1698297;83;20184;-76
2022/06/30 06:53:32;;;;;;;;;;;;;;;25.66;72.34;100395.42;1692394;83;21029;-76
2022/06/30 06:55:59;;;;;;;;;;;;;;;25.71;71.83;100392.72;1692330;83;20173;-76
2022/06/30 06:58:25;;;;;;;;;;;;;;;25.42;71.33;100386.86;1706470;83;22402;-77
2022/06/30 07:00:53;;;;;;;;;;;;;;;25.39;71.08;100393.41;1692160;83;20426;-76
2022/06/30 07:03:19;;;;;;;;;;;;;;;25.35;70.64;100391.20;1706067;83;20124;-75
2022/06/30 07:05:45;;;;;;;;;;;;;;;25.49;70.41;100396.16;1697715;83;21252;-76
2022/06/30 07:08:11;;;;;;;;;;;;;;;25.47;70.15;100392.35;1690758;83;20217;-76
2022/06/30 07:10:36;;;;;;;;;;;;;;;25.66;69.86;100383.96;1683777;83;21794;-76
2022/06/30 07:13:02;;;;;;;;;;;;;;;25.56;69.52;100382.57;1712694;83;20793;-76
2022/06/30 07:15:28;;;;;;;;;;;;;;;25.76;69.29;100388.08;1687543;83;20233;-76
2022/06/30 07:17:55;;;;;;;;;;;;;;;25.86;69.02;100383.74;1688229;83;20450;-76
2022/06/30 07:20:22;;;;;;;;;;;;;;;26.06;68.70;100390.59;1705844;83;20537;-76
2022/06/30 07:22:47;;;;;;;;;;;;;;;26.21;68.60;100381.08;1692405;83;22509;-76
2022/06/30 07:25:13;;;;;;;;;;;;;;;26.48;68.34;100382.15;1700516;83;20218;-76
2022/06/30 07:27:39;;;;;;;;;;;;;;;26.46;68.01;100380.25;1682416;83;20749;-76
2022/06/30 07:30:06;;;;;;;;;;;;;;;26.28;67.71;100376.95;1694174;83;20385;-76
2022/06/30 07:32:32;;;;;;;;;;;;;;;26.28;67.52;100366.01;1709901;83;20519;-76
2022/06/30 07:34:58;;;;;;;;;;;;;;;26.41;67.21;100367.93;1693751;83;21744;-76
2022/06/30 07:37:23;;;;;;;;;;;;;;;26.36;66.90;100369.28;1693445;83;20244;-76
2022/06/30 07:40:09;;;;;;;;;;;;;;;26.26;66.50;100367.39;1707988;82;20138;-76
2022/06/30 07:42:35;;;;;;;;;;;;;;;26.18;66.18;100371.48;1729309;82;20479;-76
2022/06/30 07:45:03;;;;;;;;;;;;;;;26.42;65.93;100373.69;1716235;81;20141;-76
2022/06/30 07:47:29;;;;;;;;;;;;;;;26.61;65.71;100372.00;1712663;82;21862;-77
2022/06/30 07:49:54;;;;;;;;;;;;;;;26.99;65.56;100378.78;1712103;81;20191;-76
2022/06/30 07:52:38;;;;;;;;;;;;;;;27.36;65.30;100377.01;1712832;82;20189;-76
2022/06/30 07:55:05;;;;;;;;;;;;;;;27.63;65.01;100371.41;1716911;82;21029;-76
2022/06/30 07:57:31;;;;;;;;;;;;;;;27.85;64.76;100369.64;1713807;82;20176;-77
2022/06/30 07:59:56;;;;;;;;;;;;;;;27.54;64.10;100372.30;1702076;82;22449;-76
2022/06/30 08:02:22;;;;;;;;;;;;;;;27.39;63.89;100375.08;1718789;82;20195;-77
2022/06/30 08:04:48;;;;;;;;;;;;;;;27.64;63.79;100366.75;1706312;82;20190;-77
2022/06/30 08:07:14;;;;;;;;;;;;;;;27.95;63.63;100369.56;1714199;82;21306;-77
2022/06/30 08:09:40;;;;;;;;;;;;;;;28.18;63.43;100371.59;1718469;82;20199;-77
2022/06/30 08:12:06;;;;;;;;;;;;;;;28.28;62.97;100371.54;1701998;82;21879;-77
2022/06/30 08:14:32;;;;;;;;;;;;;;;28.07;62.57;100368.69;1713589;82;20219;-77
2022/06/30 08:16:59;;;;;;;;;;;;;;;27.77;62.22;100372.42;1711866;82;20106;-77
2022/06/30 08:19:24;;;;;;;;;;;;;;;27.88;61.98;100366.87;1711613;82;21070;-77
2022/06/30 08:21:50;;;;;;;;;;;;;;;28.01;61.62;100365.67;1713915;82;20267;-77
2022/06/30 08:24:16;;;;;;;;;;;;;;;28.02;61.38;100371.43;1714963;82;21944;-77
2022/06/30 08:26:42;;;;;;;;;;;;;;;28.09;61.24;100362.36;1708856;82;20224;-77
2022/06/30 08:29:08;;;;;;;;;;;;;;;28.23;60.89;100371.56;1716311;82;20238;-77
2022/06/30 08:31:35;;;;;;;;;;;;;;;28.20;60.41;100364.47;1713198;82;21081;-77
2022/06/30 08:34:02;;;;;;;;;;;;;;;28.12;60.16;100359.59;1716636;82;20338;-77
2022/06/30 08:36:28;;;;;;;;;;;;;;;28.35;59.81;100364.34;1716295;82;22432;-78
2022/06/30 08:38:54;;;;;;;;;;;;;;;28.37;59.34;100351.14;1714531;82;20549;-77
2022/06/30 08:44:04;;;;;;;;;;;;;;;28.54;58.87;100353.44;1722008;81;20514;-78
2022/06/30 08:46:30;;;;;;;;;;;;;;;28.49;58.57;100349.39;1720316;82;20514;-78
2022/06/30 08:48:56;;;;;;;;;;;;;;;28.22;58.21;100346.60;1711371;81;21793;-77
2022/06/30 08:51:22;;;;;;;;;;;;;;;28.27;58.15;100335.60;1686075;82;20608;-78
2022/06/30 08:53:53;;;;;;;;;;;;;;;28.45;57.92;100335.98;1718763;81;20211;-76
2022/06/30 08:56:19;;;;;;;;;;;;;;;28.28;57.76;100331.76;1715446;81;20453;-77
2022/06/30 08:58:45;;;;;;;;;;;;;;;28.44;57.58;100328.84;1721590;81;20489;-77
2022/06/30 09:01:11;;;;;;;;;;;;;;;28.40;57.22;100325.05;1722781;82;21772;-76
2022/06/30 09:03:38;;;;;;;;;;;;;;;28.62;57.07;100330.31;1724170;81;20250;-75
2022/06/30 09:06:22;;;;;;;;;;;;;;;28.61;56.69;100336.91;1723447;81;20182;-74
2022/06/30 09:08:49;;;;;;;;;;;;;;;28.41;56.12;100340.41;1722476;82;20476;-76
2022/06/30 09:11:15;;;;;;;;;;;;;;;28.25;55.93;100326.82;1721854;81;20231;-76
2022/06/30 09:13:43;;;;;;;;;;;;;;;28.69;55.97;100325.88;1726736;81;21873;-77
2022/06/30 09:16:09;;;;;;;;;;;;;;;29.07;55.60;100327.62;1716365;82;20280;-77
2022/06/30 09:18:35;;;;;;;;;;;;;;;29.15;55.26;100326.97;1724470;82;20739;-76
2022/06/30 09:21:18;;;;;;;;;;;;;;;29.08;54.90;100332.01;1719876;82;20421;-76
2022/06/30 09:23:45;;;;;;;;;;;;;;;29.14;54.96;100330.00;1717302;81;20695;-77
2022/06/30 09:26:19;;;;;;;;;;;;;;;29.33;54.80;100335.02;1718993;82;22495;-77
2022/06/30 09:28:54;;;;;;;;;;;;;;;29.13;54.25;100345.66;1721484;82;20188;-76
2022/06/30 09:31:38;;;;;;;;;;;;;;;28.59;53.99;100345.17;1708639;82;20097;-76
2022/06/30 09:34:16;;;;;;;;;;;;;;;28.05;54.11;100352.20;1711167;82;20302;-76
2022/06/30 09:36:40;;;;;;;;;;;;;;;27.70;54.13;100340.95;1716672;82;20206;-76
2022/06/30 09:39:07;;;;;;;;;;;;;;;27.64;54.38;100336.61;1718858;82;22431;-77
2022/06/30 09:41:35;;;;;;;;;;;;;;;27.60;54.38;100341.02;1715270;82;20263;-77
2022/06/30 09:44:06;;;;;;;;;;;;;;;27.64;54.39;100341.55;1704727;82;20172;-76
2022/06/30 09:46:36;;;;;;;;;;;;;;;27.49;54.45;100336.70;1712191;82;20392;-77
2022/06/30 09:49:00;;;;;;;;;;;;;;;27.56;54.67;100334.46;1712698;82;20164;-77
2022/06/30 09:51:25;;;;;;;;;;;;;;;27.83;54.73;100329.91;1717212;82;21896;-76
2022/06/30 09:54:05;;;;;;;;;;;;;;;28.07;54.74;100330.30;1663136;82;20283;-76
2022/06/30 09:56:31;;;;;;;;;;;;;;;28.22;54.64;100324.66;1705495;83;20456;-78
2022/06/30 09:58:57;;;;;;;;;;;;;;;28.37;54.49;100322.88;1694192;82;20454;-76
2022/06/30 10:01:52;;;;;;;;;;;;;;;28.43;54.34;100321.75;1714342;82;20512;-76
2022/06/30 10:04:17;;;;;;;;;;;;;;;28.44;54.16;100324.19;1708161;82;22492;-77
2022/06/30 10:06:44;;;;;;;;;;;;;;;28.40;54.26;100327.79;1717014;82;20189;-77
2022/06/30 10:09:10;;;;;;;;;;;;;;;28.23;54.17;100325.48;1703750;82;20196;-77
2022/06/30 10:11:36;;;;;;;;;;;;;;;28.26;54.36;100328.47;1715897;82;20358;-77
2022/06/30 10:14:05;;;;;;;;;;;;;;;28.22;54.31;100321.92;1715751;82;20165;-77
2022/06/30 10:16:31;;;;;;;;;;;;;;;28.64;54.55;100325.92;1716060;82;22622;-77
2022/06/30 10:18:57;;;;;;;;;;;;;;;29.10;54.46;100327.03;1710316;82;20187;-77
2022/06/30 10:21:22;;;;;;;;;;;;;;;29.41;54.23;100329.42;1708747;82;20783;-77
2022/06/30 10:23:50;;;;;;;;;;;;;;;29.58;54.04;100322.84;1708862;82;21016;-77
2022/06/30 10:29:00;;;;;;;;;;;;;;;29.22;53.94;100327.44;1716035;83;21712;-77
2022/06/30 10:31:35;;;;;;;;;;;;;;;28.79;53.85;100331.25;1714032;82;20191;-77
2022/06/30 10:34:15;;;;;;;;;;;;;;;28.64;53.98;100327.30;1711845;82;20302;-76
2022/06/30 10:37:06;;;;;;;;;;;;;;;28.44;54.08;100331.59;1714357;83;20457;-77
2022/06/30 10:39:56;;;;;;;;;;;;;;;28.29;54.26;100325.14;1713603;82;20144;-77
2022/06/30 10:42:40;;;;;;;;;;;;;;;28.40;54.30;100323.67;1721111;82;21928;-77
2022/06/30 10:45:28;;;;;;;;;;;;;;;28.25;54.34;100321.34;1716467;82;20927;-77
2022/06/30 10:48:06;;;;;;;;;;;;;;;28.20;54.59;100320.03;1724036;81;20547;-76
2022/06/30 10:50:36;;;;;;;;;;;;;;;28.71;54.71;100313.48;1734362;82;20495;-77
2022/06/30 10:53:03;;;;;;;;;;;;;;;29.08;54.48;100311.41;1719940;81;20426;-76
2022/06/30 10:55:29;;;;;;;;;;;;;;;29.08;54.26;100307.29;1711582;82;21863;-76
2022/06/30 10:58:02;;;;;;;;;;;;;;;28.91;54.19;100304.21;1643150;84;20184;-76
2022/06/30 11:00:43;;;;;;;;;;;;;;;28.58;54.23;100302.36;1724386;82;20111;-76
2022/06/30 11:03:09;;;;;;;;;;;;;;;28.45;54.51;100304.42;1711339;82;20451;-77
2022/06/30 11:05:38;;;;;;;;;;;;;;;28.68;54.63;100303.64;1724120;81;20167;-76
2022/06/30 11:08:46;;;;;;;;;;;;;;;28.78;54.37;100296.69;1736518;81;21968;-76
2022/06/30 11:11:28;;;;;;;;;;;;;;;28.79;54.08;100306.55;1736100;81;20127;-76
2022/06/30 11:14:04;;;;;;;;;;;;;;;28.80;54.17;100295.83;1704238;82;20168;-76
2022/06/30 11:16:31;;;;;;;;;;;;;;;28.66;53.95;100297.61;1708472;82;20437;-76
2022/06/30 11:18:57;;;;;;;;;;;;;;;28.31;53.75;100289.75;1709159;83;20168;-77
2022/06/30 11:21:22;;;;;;;;;;;;;;;28.05;53.82;100282.28;1704475;82;22301;-76
2022/06/30 11:23:49;;;;;;;;;;;;;;;28.19;54.17;100270.38;1714839;82;20183;-76
2022/06/30 11:29:01;;;;;;;;;;;;;;;28.69;54.19;100278.66;1707948;82;20351;-76
2022/06/30 11:31:32;;;;;;;;;;;;;;;28.91;54.16;100275.38;1709543;82;20200;-76
2022/06/30 11:34:02;;;;;;;;;;;;;;;28.84;54.17;100276.84;1713457;82;21728;-76
2022/06/30 11:36:28;;;;;;;;;;;;;;;28.89;54.20;100278.95;1718255;83;20116;-76
2022/06/30 11:38:55;;;;;;;;;;;;;;;29.24;54.18;100271.63;1713759;82;20409;-77
2022/06/30 11:44:09;;;;;;;;;;;;;;;29.93;53.67;100265.95;1719889;82;20164;-77
2022/06/30 11:46:58;;;;;;;;;;;;;;;30.07;53.11;100265.42;1722102;82;21764;-76
2022/06/30 11:49:47;;;;;;;;;;;;;;;30.16;52.83;100266.35;1717933;83;20865;-76
2022/06/30 11:52:25;;;;;;;;;;;;;;;30.24;52.61;100260.71;1710896;82;20161;-76
2022/06/30 11:55:00;;;;;;;;;;;;;;;30.32;52.53;100266.08;1719855;82;20405;-76
2022/06/30 11:57:28;;;;;;;;;;;;;;;30.48;52.25;100260.56;1707916;82;20173;-76
2022/06/30 11:59:57;;;;;;;;;;;;;;;30.14;51.96;100256.22;1721847;82;21846;-76
2022/06/30 12:02:23;;;;;;;;;;;;;;;29.83;51.89;100259.77;1713564;82;20820;-75
2022/06/30 12:04:53;;;;;;;;;;;;;;;29.59;51.90;100257.14;1709269;82;20274;-76
2022/06/30 12:07:21;;;;;;;;;;;;;;;29.17;51.69;100256.61;1718710;82;20393;-76
2022/06/30 12:09:47;;;;;;;;;;;;;;;29.09;51.72;100260.86;1717690;82;20168;-76
2022/06/30 12:12:13;;;;;;;;;;;;;;;29.00;51.48;100269.48;1709146;82;21885;-76
2022/06/30 12:14:39;;;;;;;;;;;;;;;28.92;51.44;100261.92;1718573;82;20120;-76
2022/06/30 12:17:06;;;;;;;;;;;;;;;28.85;51.36;100255.97;1717632;82;20365;-76
2022/06/30 12:19:32;;;;;;;;;;;;;;;28.89;51.35;100269.34;1723231;82;21083;-76
2022/06/30 12:21:58;;;;;;;;;;;;;;;28.75;51.33;100267.05;1723307;83;20198;-76
2022/06/30 12:24:24;;;;;;;;;;;;;;;28.74;51.43;100272.30;1723208;82;21851;-76
2022/06/30 12:26:56;;;;;;;;;;;;;;;28.76;51.35;100268.14;1723347;82;20136;-76
2022/06/30 12:29:24;;;;;;;;;;;;;;;28.96;51.27;100270.39;1710522;82;20138;-76
2022/06/30 12:32:01;;;;;;;;;;;;;;;29.25;51.15;100267.77;1715943;82;20395;-76
2022/06/30 12:34:28;;;;;;;;;;;;;;;29.68;50.93;100270.45;1710353;82;20515;-76
2022/06/30 12:36:59;;;;;;;;;;;;;;;29.93;50.71;100271.45;1713649;83;22646;-76
2022/06/30 12:39:25;;;;;;;;;;;;;;;29.96;50.38;100270.84;1708749;83;20750;-76
2022/06/30 12:41:55;;;;;;;;;;;;;;;29.80;50.12;100268.63;1740105;81;20211;-76
2022/06/30 12:44:32;;;;;;;;;;;;;;;29.95;50.22;100270.58;1683593;83;21237;-77
2022/06/30 12:47:07;;;;;;;;;;;;;;;30.11;50.23;100265.08;1708574;82;20169;-76
2022/06/30 12:49:33;;;;;;;;;;;;;;;30.08;49.96;100261.53;1710474;83;21936;-76
2022/06/30 12:51:58;;;;;;;;;;;;;;;29.69;49.84;100270.72;1709776;82;20278;-76
2022/06/30 12:54:25;;;;;;;;;;;;;;;29.46;49.91;100264.74;1696401;82;20217;-76
2022/06/30 12:56:53;;;;;;;;;;;;;;;29.42;49.99;100270.02;1703549;82;20484;-76
2022/06/30 12:59:25;;;;;;;;;;;;;;;29.37;49.94;100267.36;1710483;82;20165;-77
2022/06/30 13:01:55;;;;;;;;;;;;;;;29.65;49.90;100272.43;1706191;82;21806;-76